sensor_id;sensor_type;location;lat;lon;timestamp;P1;durP1;ratioP1;P2;durP2;ratioP2
16262;SDS011;8239;48.594;8.598;2022-09-27T00:01:59;0.70;;;0.70;;
16262;SDS011;8239;48.594;8.598;2022-09-27T00:04:27;0.70;;;0.70;;
16262;SDS011;8239;48.594;8.598;2022-09-27T00:06:54;1.27;;;0.80;;
16262;SDS011;8239;48.594;8.598;2022-09-27T00:09:21;0.70;;;0.70;;
16262;SDS011;8239;48.594;8.598;2022-09-27T00:11:49;0.50;;;0.50;;
16262;SDS011;8239;48.594;8.598;2022-09-27T00:14:16;0.70;;;0.70;;
16262;SDS011;8239;48.594;8.598;2022-09-27T00:16:44;0.90;;;0.70;;
16262;SDS011;8239;48.594;8.598;2022-09-27T00:19:12;1.50;;;0.60;;
16262;SDS011;8239;48.594;8.598;2022-09-27T00:21:43;0.40;;;0.40;;
16262;SDS011;8239;48.594;8.598;2022-09-27T00:24:11;0.57;;;0.57;;
16262;SDS011;8239;48.594;8.598;2022-09-27T00:26:40;0.63;;;0.63;;
16262;SDS011;8239;48.594;8.598;2022-09-27T00:29:07;0.40;;;0.40;;
16262;SDS011;8239;48.594;8.598;2022-09-27T00:31:35;0.50;;;0.50;;
16262;SDS011;8239;48.594;8.598;2022-09-27T00:34:03;0.60;;;0.60;;
16262;SDS011;8239;48.594;8.598;2022-09-27T00:36:32;0.40;;;0.40;;
16262;SDS011;8239;48.594;8.598;2022-09-27T00:39:01;0.50;;;0.50;;
16262;SDS011;8239;48.594;8.598;2022-09-27T00:41:29;0.30;;;0.30;;
16262;SDS011;8239;48.594;8.598;2022-09-27T00:43:58;0.40;;;0.40;;
16262;SDS011;8239;48.594;8.598;2022-09-27T00:46:28;0.60;;;0.60;;
16262;SDS011;8239;48.594;8.598;2022-09-27T00:49:03;0.20;;;0.20;;
16262;SDS011;8239;48.594;8.598;2022-09-27T00:51:33;0.43;;;0.30;;
16262;SDS011;8239;48.594;8.598;2022-09-27T00:54:05;0.47;;;0.47;;
16262;SDS011;8239;48.594;8.598;2022-09-27T00:56:36;0.40;;;0.40;;
16262;SDS011;8239;48.594;8.598;2022-09-27T00:59:05;0.30;;;0.30;;
16262;SDS011;8239;48.594;8.598;2022-09-27T01:01:37;0.93;;;0.27;;
16262;SDS011;8239;48.594;8.598;2022-09-27T01:04:05;0.37;;;0.20;;
16262;SDS011;8239;48.594;8.598;2022-09-27T01:06:34;0.27;;;0.27;;
16262;SDS011;8239;48.594;8.598;2022-09-27T01:09:02;0.30;;;0.30;;
16262;SDS011;8239;48.594;8.598;2022-09-27T01:11:34;0.30;;;0.30;;
16262;SDS011;8239;48.594;8.598;2022-09-27T01:14:11;0.20;;;0.20;;
16262;SDS011;8239;48.594;8.598;2022-09-27T01:16:49;0.53;;;0.50;;
16262;SDS011;8239;48.594;8.598;2022-09-27T01:19:30;0.50;;;0.50;;
16262;SDS011;8239;48.594;8.598;2022-09-27T01:22:18;0.90;;;0.50;;
16262;SDS011;8239;48.594;8.598;2022-09-27T01:24:54;0.80;;;0.50;;
16262;SDS011;8239;48.594;8.598;2022-09-27T01:30:34;1.30;;;0.60;;
16262;SDS011;8239;48.594;8.598;2022-09-27T01:33:14;0.43;;;0.43;;
16262;SDS011;8239;48.594;8.598;2022-09-27T01:35:52;1.17;;;0.50;;
16262;SDS011;8239;48.594;8.598;2022-09-27T01:38:33;1.03;;;0.60;;
16262;SDS011;8239;48.594;8.598;2022-09-27T01:41:11;0.70;;;0.60;;
16262;SDS011;8239;48.594;8.598;2022-09-27T01:43:46;0.80;;;0.50;;
16262;SDS011;8239;48.594;8.598;2022-09-27T01:46:22;0.40;;;0.40;;
16262;SDS011;8239;48.594;8.598;2022-09-27T01:48:52;0.50;;;0.50;;
16262;SDS011;8239;48.594;8.598;2022-09-27T01:51:22;0.50;;;0.50;;
16262;SDS011;8239;48.594;8.598;2022-09-27T01:53:55;0.47;;;0.47;;
16262;SDS011;8239;48.594;8.598;2022-09-27T01:56:29;0.63;;;0.40;;
16262;SDS011;8239;48.594;8.598;2022-09-27T01:59:02;1.70;;;0.50;;
16262;SDS011;8239;48.594;8.598;2022-09-27T02:01:35;1.10;;;0.43;;
16262;SDS011;8239;48.594;8.598;2022-09-27T02:04:07;0.73;;;0.30;;
16262;SDS011;8239;48.594;8.598;2022-09-27T02:06:40;0.40;;;0.30;;
16262;SDS011;8239;48.594;8.598;2022-09-27T02:09:11;0.90;;;0.33;;
16262;SDS011;8239;48.594;8.598;2022-09-27T02:11:43;0.40;;;0.20;;
16262;SDS011;8239;48.594;8.598;2022-09-27T02:14:14;0.10;;;0.10;;
16262;SDS011;8239;48.594;8.598;2022-09-27T02:16:47;0.20;;;0.20;;
16262;SDS011;8239;48.594;8.598;2022-09-27T02:19:19;1.23;;;0.20;;
16262;SDS011;8239;48.594;8.598;2022-09-27T02:21:52;0.20;;;0.20;;
16262;SDS011;8239;48.594;8.598;2022-09-27T02:24:28;0.50;;;0.40;;
16262;SDS011;8239;48.594;8.598;2022-09-27T02:27:03;1.43;;;0.60;;
16262;SDS011;8239;48.594;8.598;2022-09-27T02:29:38;0.87;;;0.57;;
16262;SDS011;8239;48.594;8.598;2022-09-27T02:32:11;1.10;;;0.70;;
16262;SDS011;8239;48.594;8.598;2022-09-27T02:34:39;0.60;;;0.50;;
16262;SDS011;8239;48.594;8.598;2022-09-27T02:37:06;1.40;;;0.70;;
16262;SDS011;8239;48.594;8.598;2022-09-27T02:39:34;1.60;;;1.10;;
16262;SDS011;8239;48.594;8.598;2022-09-27T02:42:01;1.63;;;1.00;;
16262;SDS011;8239;48.594;8.598;2022-09-27T02:44:30;1.83;;;0.90;;
16262;SDS011;8239;48.594;8.598;2022-09-27T02:47:02;2.63;;;1.00;;
16262;SDS011;8239;48.594;8.598;2022-09-27T02:49:43;1.53;;;1.10;;
16262;SDS011;8239;48.594;8.598;2022-09-27T02:52:22;1.27;;;0.93;;
16262;SDS011;8239;48.594;8.598;2022-09-27T02:54:59;1.83;;;1.00;;
16262;SDS011;8239;48.594;8.598;2022-09-27T02:57:35;3.57;;;1.40;;
16262;SDS011;8239;48.594;8.598;2022-09-27T03:00:11;2.87;;;1.20;;
16262;SDS011;8239;48.594;8.598;2022-09-27T03:02:44;2.73;;;1.40;;
16262;SDS011;8239;48.594;8.598;2022-09-27T03:05:20;3.07;;;1.13;;
16262;SDS011;8239;48.594;8.598;2022-09-27T03:07:50;2.37;;;1.37;;
16262;SDS011;8239;48.594;8.598;2022-09-27T03:10:18;3.87;;;1.50;;
16262;SDS011;8239;48.594;8.598;2022-09-27T03:12:46;3.77;;;1.60;;
16262;SDS011;8239;48.594;8.598;2022-09-27T03:15:14;4.80;;;1.30;;
16262;SDS011;8239;48.594;8.598;2022-09-27T03:17:41;3.47;;;1.27;;
16262;SDS011;8239;48.594;8.598;2022-09-27T03:20:09;4.03;;;1.60;;
16262;SDS011;8239;48.594;8.598;2022-09-27T03:22:37;2.17;;;1.33;;
16262;SDS011;8239;48.594;8.598;2022-09-27T03:25:05;2.83;;;1.40;;
16262;SDS011;8239;48.594;8.598;2022-09-27T03:27:32;2.37;;;1.30;;
16262;SDS011;8239;48.594;8.598;2022-09-27T03:29:59;3.03;;;1.40;;
16262;SDS011;8239;48.594;8.598;2022-09-27T03:32:26;2.83;;;1.33;;
16262;SDS011;8239;48.594;8.598;2022-09-27T03:34:55;3.03;;;1.47;;
16262;SDS011;8239;48.594;8.598;2022-09-27T03:37:22;2.03;;;1.40;;
16262;SDS011;8239;48.594;8.598;2022-09-27T03:39:52;1.67;;;1.50;;
16262;SDS011;8239;48.594;8.598;2022-09-27T03:42:19;3.67;;;1.20;;
16262;SDS011;8239;48.594;8.598;2022-09-27T03:44:46;2.27;;;1.30;;
16262;SDS011;8239;48.594;8.598;2022-09-27T03:47:15;3.93;;;1.43;;
16262;SDS011;8239;48.594;8.598;2022-09-27T03:49:42;2.83;;;1.20;;
16262;SDS011;8239;48.594;8.598;2022-09-27T03:52:09;3.67;;;1.20;;
16262;SDS011;8239;48.594;8.598;2022-09-27T03:54:37;4.10;;;1.37;;
16262;SDS011;8239;48.594;8.598;2022-09-27T03:57:05;1.70;;;1.10;;
16262;SDS011;8239;48.594;8.598;2022-09-27T03:59:32;1.00;;;0.90;;
16262;SDS011;8239;48.594;8.598;2022-09-27T04:01:59;2.00;;;1.17;;
16262;SDS011;8239;48.594;8.598;2022-09-27T04:04:27;1.70;;;0.80;;
16262;SDS011;8239;48.594;8.598;2022-09-27T04:06:54;1.60;;;0.87;;
16262;SDS011;8239;48.594;8.598;2022-09-27T04:09:23;1.47;;;1.00;;
16262;SDS011;8239;48.594;8.598;2022-09-27T04:11:50;1.00;;;0.90;;
16262;SDS011;8239;48.594;8.598;2022-09-27T04:14:19;2.13;;;1.00;;
16262;SDS011;8239;48.594;8.598;2022-09-27T04:16:46;1.17;;;0.83;;
16262;SDS011;8239;48.594;8.598;2022-09-27T04:19:13;0.77;;;0.77;;
16262;SDS011;8239;48.594;8.598;2022-09-27T04:21:40;0.90;;;0.90;;
16262;SDS011;8239;48.594;8.598;2022-09-27T04:24:07;0.97;;;0.97;;
16262;SDS011;8239;48.594;8.598;2022-09-27T04:26:36;1.07;;;0.90;;
16262;SDS011;8239;48.594;8.598;2022-09-27T04:29:04;3.23;;;0.90;;
16262;SDS011;8239;48.594;8.598;2022-09-27T04:31:35;1.23;;;1.00;;
16262;SDS011;8239;48.594;8.598;2022-09-27T04:34:03;1.43;;;0.97;;
16262;SDS011;8239;48.594;8.598;2022-09-27T04:36:30;1.37;;;1.00;;
16262;SDS011;8239;48.594;8.598;2022-09-27T04:38:57;0.90;;;0.90;;
16262;SDS011;8239;48.594;8.598;2022-09-27T04:41:25;2.03;;;0.90;;
16262;SDS011;8239;48.594;8.598;2022-09-27T04:43:53;2.83;;;1.10;;
16262;SDS011;8239;48.594;8.598;2022-09-27T04:46:21;1.10;;;0.90;;
16262;SDS011;8239;48.594;8.598;2022-09-27T04:48:50;4.00;;;1.00;;
16262;SDS011;8239;48.594;8.598;2022-09-27T04:51:17;2.83;;;1.00;;
16262;SDS011;8239;48.594;8.598;2022-09-27T04:53:45;2.47;;;1.17;;
16262;SDS011;8239;48.594;8.598;2022-09-27T04:56:12;1.17;;;0.90;;
16262;SDS011;8239;48.594;8.598;2022-09-27T04:58:40;2.47;;;0.90;;
16262;SDS011;8239;48.594;8.598;2022-09-27T05:01:07;1.27;;;1.00;;
16262;SDS011;8239;48.594;8.598;2022-09-27T05:03:35;1.73;;;1.10;;
16262;SDS011;8239;48.594;8.598;2022-09-27T05:06:04;1.73;;;1.00;;
16262;SDS011;8239;48.594;8.598;2022-09-27T05:08:32;2.03;;;0.80;;
16262;SDS011;8239;48.594;8.598;2022-09-27T05:10:59;2.30;;;0.80;;
16262;SDS011;8239;48.594;8.598;2022-09-27T05:13:26;1.43;;;0.70;;
16262;SDS011;8239;48.594;8.598;2022-09-27T05:15:53;1.00;;;0.60;;
16262;SDS011;8239;48.594;8.598;2022-09-27T05:18:20;1.33;;;0.63;;
16262;SDS011;8239;48.594;8.598;2022-09-27T05:20:47;1.33;;;0.67;;
16262;SDS011;8239;48.594;8.598;2022-09-27T05:23:15;0.40;;;0.40;;
16262;SDS011;8239;48.594;8.598;2022-09-27T05:25:43;0.40;;;0.40;;
16262;SDS011;8239;48.594;8.598;2022-09-27T05:28:10;0.40;;;0.40;;
16262;SDS011;8239;48.594;8.598;2022-09-27T05:30:37;0.23;;;0.23;;
16262;SDS011;8239;48.594;8.598;2022-09-27T05:33:04;0.20;;;0.20;;
16262;SDS011;8239;48.594;8.598;2022-09-27T05:35:31;0.20;;;0.20;;
16262;SDS011;8239;48.594;8.598;2022-09-27T05:37:59;0.20;;;0.20;;
16262;SDS011;8239;48.594;8.598;2022-09-27T05:40:28;0.70;;;0.40;;
16262;SDS011;8239;48.594;8.598;2022-09-27T05:42:55;0.47;;;0.30;;
16262;SDS011;8239;48.594;8.598;2022-09-27T05:45:23;0.63;;;0.20;;
16262;SDS011;8239;48.594;8.598;2022-09-27T05:47:54;0.33;;;0.30;;
16262;SDS011;8239;48.594;8.598;2022-09-27T05:50:22;0.30;;;0.30;;
16262;SDS011;8239;48.594;8.598;2022-09-27T05:52:50;0.67;;;0.43;;
16262;SDS011;8239;48.594;8.598;2022-09-27T05:55:17;0.30;;;0.30;;
16262;SDS011;8239;48.594;8.598;2022-09-27T05:57:56;0.27;;;0.27;;
16262;SDS011;8239;48.594;8.598;2022-09-27T06:00:25;0.40;;;0.40;;
16262;SDS011;8239;48.594;8.598;2022-09-27T06:02:54;0.70;;;0.23;;
16262;SDS011;8239;48.594;8.598;2022-09-27T06:05:23;0.30;;;0.30;;
16262;SDS011;8239;48.594;8.598;2022-09-27T06:07:52;0.40;;;0.30;;
16262;SDS011;8239;48.594;8.598;2022-09-27T06:10:24;0.30;;;0.30;;
16262;SDS011;8239;48.594;8.598;2022-09-27T06:12:51;0.40;;;0.40;;
16262;SDS011;8239;48.594;8.598;2022-09-27T06:15:21;0.33;;;0.20;;
16262;SDS011;8239;48.594;8.598;2022-09-27T06:17:48;0.27;;;0.27;;
16262;SDS011;8239;48.594;8.598;2022-09-27T06:20:16;0.40;;;0.40;;
16262;SDS011;8239;48.594;8.598;2022-09-27T06:22:43;0.30;;;0.30;;
16262;SDS011;8239;48.594;8.598;2022-09-27T06:25:11;0.93;;;0.33;;
16262;SDS011;8239;48.594;8.598;2022-09-27T06:27:38;0.27;;;0.27;;
16262;SDS011;8239;48.594;8.598;2022-09-27T06:30:05;0.67;;;0.40;;
16262;SDS011;8239;48.594;8.598;2022-09-27T06:32:35;0.40;;;0.40;;
16262;SDS011;8239;48.594;8.598;2022-09-27T06:35:02;0.40;;;0.40;;
16262;SDS011;8239;48.594;8.598;2022-09-27T06:37:31;0.23;;;0.23;;
16262;SDS011;8239;48.594;8.598;2022-09-27T06:39:58;0.30;;;0.30;;
16262;SDS011;8239;48.594;8.598;2022-09-27T06:42:26;0.60;;;0.40;;
16262;SDS011;8239;48.594;8.598;2022-09-27T06:44:54;0.40;;;0.40;;
16262;SDS011;8239;48.594;8.598;2022-09-27T06:47:21;0.30;;;0.30;;
16262;SDS011;8239;48.594;8.598;2022-09-27T06:49:50;0.93;;;0.30;;
16262;SDS011;8239;48.594;8.598;2022-09-27T06:52:18;0.57;;;0.40;;
16262;SDS011;8239;48.594;8.598;2022-09-27T06:54:45;0.40;;;0.40;;
16262;SDS011;8239;48.594;8.598;2022-09-27T06:57:12;0.50;;;0.40;;
16262;SDS011;8239;48.594;8.598;2022-09-27T07:00:00;0.73;;;0.50;;
16262;SDS011;8239;48.594;8.598;2022-09-27T07:02:45;0.43;;;0.43;;
16262;SDS011;8239;48.594;8.598;2022-09-27T07:05:14;0.57;;;0.57;;
16262;SDS011;8239;48.594;8.598;2022-09-27T07:07:41;0.30;;;0.20;;
16262;SDS011;8239;48.594;8.598;2022-09-27T07:10:08;0.47;;;0.30;;
16262;SDS011;8239;48.594;8.598;2022-09-27T07:12:36;0.60;;;0.40;;
16262;SDS011;8239;48.594;8.598;2022-09-27T07:15:04;0.40;;;0.30;;
16262;SDS011;8239;48.594;8.598;2022-09-27T07:17:32;0.30;;;0.30;;
16262;SDS011;8239;48.594;8.598;2022-09-27T07:20:00;1.50;;;0.40;;
16262;SDS011;8239;48.594;8.598;2022-09-27T07:22:29;0.50;;;0.40;;
16262;SDS011;8239;48.594;8.598;2022-09-27T07:24:56;0.23;;;0.23;;
16262;SDS011;8239;48.594;8.598;2022-09-27T07:27:23;0.33;;;0.33;;
16262;SDS011;8239;48.594;8.598;2022-09-27T07:29:50;0.50;;;0.50;;
16262;SDS011;8239;48.594;8.598;2022-09-27T07:32:18;0.20;;;0.20;;
16262;SDS011;8239;48.594;8.598;2022-09-27T07:34:45;0.50;;;0.40;;
16262;SDS011;8239;48.594;8.598;2022-09-27T07:37:12;0.40;;;0.23;;
16262;SDS011;8239;48.594;8.598;2022-09-27T07:39:41;0.30;;;0.30;;
16262;SDS011;8239;48.594;8.598;2022-09-27T07:42:08;0.27;;;0.23;;
16262;SDS011;8239;48.594;8.598;2022-09-27T07:44:36;0.30;;;0.30;;
16262;SDS011;8239;48.594;8.598;2022-09-27T07:47:05;0.30;;;0.30;;
16262;SDS011;8239;48.594;8.598;2022-09-27T07:49:33;0.33;;;0.33;;
16262;SDS011;8239;48.594;8.598;2022-09-27T07:52:00;0.30;;;0.30;;
16262;SDS011;8239;48.594;8.598;2022-09-27T07:54:28;0.40;;;0.40;;
16262;SDS011;8239;48.594;8.598;2022-09-27T07:56:56;0.20;;;0.20;;
16262;SDS011;8239;48.594;8.598;2022-09-27T07:59:23;1.27;;;0.30;;
16262;SDS011;8239;48.594;8.598;2022-09-27T08:01:52;0.97;;;0.30;;
16262;SDS011;8239;48.594;8.598;2022-09-27T08:04:20;0.23;;;0.23;;
16262;SDS011;8239;48.594;8.598;2022-09-27T08:06:47;0.30;;;0.30;;
16262;SDS011;8239;48.594;8.598;2022-09-27T08:09:14;1.03;;;0.40;;
16262;SDS011;8239;48.594;8.598;2022-09-27T08:11:41;0.37;;;0.37;;
16262;SDS011;8239;48.594;8.598;2022-09-27T08:14:11;0.33;;;0.33;;
16262;SDS011;8239;48.594;8.598;2022-09-27T08:16:39;0.30;;;0.30;;
16262;SDS011;8239;48.594;8.598;2022-09-27T08:19:06;0.27;;;0.27;;
16262;SDS011;8239;48.594;8.598;2022-09-27T08:21:33;0.80;;;0.33;;
16262;SDS011;8239;48.594;8.598;2022-09-27T08:24:00;0.97;;;0.40;;
16262;SDS011;8239;48.594;8.598;2022-09-27T08:26:28;0.20;;;0.20;;
16262;SDS011;8239;48.594;8.598;2022-09-27T08:28:55;0.53;;;0.53;;
16262;SDS011;8239;48.594;8.598;2022-09-27T08:31:24;0.33;;;0.33;;
16262;SDS011;8239;48.594;8.598;2022-09-27T08:33:51;1.63;;;0.60;;
16262;SDS011;8239;48.594;8.598;2022-09-27T08:36:18;0.37;;;0.37;;
16262;SDS011;8239;48.594;8.598;2022-09-27T08:38:47;0.43;;;0.40;;
16262;SDS011;8239;48.594;8.598;2022-09-27T08:41:17;0.30;;;0.30;;
16262;SDS011;8239;48.594;8.598;2022-09-27T08:43:56;0.43;;;0.40;;
16262;SDS011;8239;48.594;8.598;2022-09-27T08:46:40;0.53;;;0.33;;
16262;SDS011;8239;48.594;8.598;2022-09-27T08:49:20;1.13;;;1.13;;
16262;SDS011;8239;48.594;8.598;2022-09-27T08:51:57;0.60;;;0.60;;
16262;SDS011;8239;48.594;8.598;2022-09-27T08:54:27;0.47;;;0.40;;
16262;SDS011;8239;48.594;8.598;2022-09-27T08:56:57;0.73;;;0.50;;
16262;SDS011;8239;48.594;8.598;2022-09-27T08:59:29;1.03;;;0.40;;
16262;SDS011;8239;48.594;8.598;2022-09-27T09:02:02;0.40;;;0.40;;
16262;SDS011;8239;48.594;8.598;2022-09-27T09:04:35;0.40;;;0.40;;
16262;SDS011;8239;48.594;8.598;2022-09-27T09:07:07;0.60;;;0.47;;
16262;SDS011;8239;48.594;8.598;2022-09-27T09:09:43;0.50;;;0.50;;
16262;SDS011;8239;48.594;8.598;2022-09-27T09:12:22;1.00;;;0.40;;
16262;SDS011;8239;48.594;8.598;2022-09-27T09:15:17;0.60;;;0.30;;
16262;SDS011;8239;48.594;8.598;2022-09-27T09:17:56;1.83;;;0.43;;
16262;SDS011;8239;48.594;8.598;2022-09-27T09:20:37;0.40;;;0.40;;
16262;SDS011;8239;48.594;8.598;2022-09-27T09:23:21;0.33;;;0.33;;
16262;SDS011;8239;48.594;8.598;2022-09-27T09:26:08;0.50;;;0.50;;
16262;SDS011;8239;48.594;8.598;2022-09-27T09:28:52;0.97;;;0.60;;
16262;SDS011;8239;48.594;8.598;2022-09-27T09:31:30;1.13;;;0.60;;
16262;SDS011;8239;48.594;8.598;2022-09-27T09:34:08;1.17;;;0.80;;
16262;SDS011;8239;48.594;8.598;2022-09-27T09:36:41;1.13;;;0.90;;
16262;SDS011;8239;48.594;8.598;2022-09-27T09:39:13;0.90;;;0.80;;
16262;SDS011;8239;48.594;8.598;2022-09-27T09:41:46;2.13;;;0.97;;
16262;SDS011;8239;48.594;8.598;2022-09-27T09:44:28;1.07;;;0.67;;
16262;SDS011;8239;48.594;8.598;2022-09-27T09:47:07;3.63;;;2.17;;
16262;SDS011;8239;48.594;8.598;2022-09-27T09:49:42;1.10;;;1.00;;
16262;SDS011;8239;48.594;8.598;2022-09-27T09:52:14;1.55;;;0.90;;
16262;SDS011;8239;48.594;8.598;2022-09-27T09:54:44;1.27;;;1.00;;
16262;SDS011;8239;48.594;8.598;2022-09-27T09:57:15;2.28;;;0.93;;
16262;SDS011;8239;48.594;8.598;2022-09-27T09:59:48;1.98;;;1.08;;
16262;SDS011;8239;48.594;8.598;2022-09-27T10:02:24;1.63;;;1.10;;
16262;SDS011;8239;48.594;8.598;2022-09-27T10:04:58;1.20;;;1.00;;
16262;SDS011;8239;48.594;8.598;2022-09-27T10:07:26;0.93;;;0.90;;
16262;SDS011;8239;48.594;8.598;2022-09-27T10:09:56;1.77;;;1.20;;
16262;SDS011;8239;48.594;8.598;2022-09-27T10:12:25;2.80;;;1.10;;
16262;SDS011;8239;48.594;8.598;2022-09-27T10:14:53;1.00;;;0.90;;
16262;SDS011;8239;48.594;8.598;2022-09-27T10:17:26;2.83;;;1.33;;
16262;SDS011;8239;48.594;8.598;2022-09-27T10:20:03;2.20;;;1.20;;
16262;SDS011;8239;48.594;8.598;2022-09-27T10:22:33;2.03;;;1.03;;
16262;SDS011;8239;48.594;8.598;2022-09-27T10:25:04;1.60;;;0.90;;
16262;SDS011;8239;48.594;8.598;2022-09-27T10:27:37;1.70;;;0.90;;
16262;SDS011;8239;48.594;8.598;2022-09-27T10:30:12;2.20;;;1.20;;
16262;SDS011;8239;48.594;8.598;2022-09-27T10:32:48;1.00;;;0.70;;
16262;SDS011;8239;48.594;8.598;2022-09-27T10:35:19;1.50;;;0.73;;
16262;SDS011;8239;48.594;8.598;2022-09-27T10:37:48;1.87;;;0.70;;
16262;SDS011;8239;48.594;8.598;2022-09-27T10:40:26;1.03;;;0.80;;
16262;SDS011;8239;48.594;8.598;2022-09-27T10:42:54;1.00;;;0.70;;
16262;SDS011;8239;48.594;8.598;2022-09-27T10:45:30;1.17;;;0.70;;
16262;SDS011;8239;48.594;8.598;2022-09-27T10:47:59;0.83;;;0.70;;
16262;SDS011;8239;48.594;8.598;2022-09-27T10:50:29;0.70;;;0.70;;
16262;SDS011;8239;48.594;8.598;2022-09-27T10:53:00;0.77;;;0.77;;
16262;SDS011;8239;48.594;8.598;2022-09-27T10:55:31;0.70;;;0.70;;
16262;SDS011;8239;48.594;8.598;2022-09-27T10:58:01;0.77;;;0.70;;
16262;SDS011;8239;48.594;8.598;2022-09-27T11:00:30;0.63;;;0.63;;
16262;SDS011;8239;48.594;8.598;2022-09-27T11:02:59;0.83;;;0.80;;
16262;SDS011;8239;48.594;8.598;2022-09-27T11:05:31;1.17;;;0.80;;
16262;SDS011;8239;48.594;8.598;2022-09-27T11:08:17;0.77;;;0.77;;
16262;SDS011;8239;48.594;8.598;2022-09-27T11:13:58;1.93;;;0.80;;
16262;SDS011;8239;48.594;8.598;2022-09-27T11:16:43;2.33;;;1.20;;
16262;SDS011;8239;48.594;8.598;2022-09-27T11:19:21;1.30;;;1.20;;
16262;SDS011;8239;48.594;8.598;2022-09-27T11:22:03;1.00;;;0.90;;
16262;SDS011;8239;48.594;8.598;2022-09-27T11:24:43;2.13;;;1.10;;
16262;SDS011;8239;48.594;8.598;2022-09-27T11:27:23;0.80;;;0.80;;
16262;SDS011;8239;48.594;8.598;2022-09-27T11:30:02;1.60;;;0.80;;
16262;SDS011;8239;48.594;8.598;2022-09-27T11:32:37;0.87;;;0.87;;
16262;SDS011;8239;48.594;8.598;2022-09-27T11:35:25;1.87;;;0.63;;
16262;SDS011;8239;48.594;8.598;2022-09-27T11:38:15;2.00;;;0.80;;
16262;SDS011;8239;48.594;8.598;2022-09-27T11:40:51;1.47;;;0.80;;
16262;SDS011;8239;48.594;8.598;2022-09-27T11:43:46;0.87;;;0.70;;
16262;SDS011;8239;48.594;8.598;2022-09-27T11:46:28;0.63;;;0.63;;
16262;SDS011;8239;48.594;8.598;2022-09-27T11:49:04;0.60;;;0.60;;
16262;SDS011;8239;48.594;8.598;2022-09-27T11:52:01;0.73;;;0.73;;
16262;SDS011;8239;48.594;8.598;2022-09-27T11:54:45;0.80;;;0.80;;
16262;SDS011;8239;48.594;8.598;2022-09-27T11:57:24;0.97;;;0.97;;
16262;SDS011;8239;48.594;8.598;2022-09-27T12:00:07;1.07;;;0.57;;
16262;SDS011;8239;48.594;8.598;2022-09-27T12:03:03;0.40;;;0.40;;
16262;SDS011;8239;48.594;8.598;2022-09-27T12:05:42;0.40;;;0.40;;
16262;SDS011;8239;48.594;8.598;2022-09-27T12:08:26;0.87;;;0.50;;
16262;SDS011;8239;48.594;8.598;2022-09-27T12:11:02;0.30;;;0.30;;
16262;SDS011;8239;48.594;8.598;2022-09-27T12:13:42;0.97;;;0.50;;
16262;SDS011;8239;48.594;8.598;2022-09-27T12:16:14;0.60;;;0.40;;
16262;SDS011;8239;48.594;8.598;2022-09-27T12:18:43;0.50;;;0.40;;
16262;SDS011;8239;48.594;8.598;2022-09-27T12:21:12;0.50;;;0.50;;
16262;SDS011;8239;48.594;8.598;2022-09-27T12:23:41;0.40;;;0.40;;
16262;SDS011;8239;48.594;8.598;2022-09-27T12:26:13;0.40;;;0.40;;
16262;SDS011;8239;48.594;8.598;2022-09-27T12:28:46;0.67;;;0.30;;
16262;SDS011;8239;48.594;8.598;2022-09-27T12:31:17;1.20;;;0.47;;
16262;SDS011;8239;48.594;8.598;2022-09-27T12:33:56;0.43;;;0.43;;
16262;SDS011;8239;48.594;8.598;2022-09-27T12:36:30;0.30;;;0.30;;
16262;SDS011;8239;48.594;8.598;2022-09-27T12:39:04;0.50;;;0.30;;
16262;SDS011;8239;48.594;8.598;2022-09-27T12:41:40;0.40;;;0.40;;
16262;SDS011;8239;48.594;8.598;2022-09-27T12:44:11;0.87;;;0.30;;
16262;SDS011;8239;48.594;8.598;2022-09-27T12:46:43;0.30;;;0.30;;
16262;SDS011;8239;48.594;8.598;2022-09-27T12:49:18;0.50;;;0.50;;
16262;SDS011;8239;48.594;8.598;2022-09-27T12:51:53;0.47;;;0.47;;
16262;SDS011;8239;48.594;8.598;2022-09-27T12:57:25;0.53;;;0.50;;
16262;SDS011;8239;48.594;8.598;2022-09-27T13:00:04;1.07;;;0.50;;
16262;SDS011;8239;48.594;8.598;2022-09-27T13:05:58;0.80;;;0.50;;
16262;SDS011;8239;48.594;8.598;2022-09-27T13:11:59;0.40;;;0.40;;
16262;SDS011;8239;48.594;8.598;2022-09-27T13:14:38;0.70;;;0.50;;
16262;SDS011;8239;48.594;8.598;2022-09-27T13:19:58;0.30;;;0.30;;
16262;SDS011;8239;48.594;8.598;2022-09-27T13:22:35;0.20;;;0.20;;
16262;SDS011;8239;48.594;8.598;2022-09-27T13:25:13;0.30;;;0.30;;
16262;SDS011;8239;48.594;8.598;2022-09-27T13:28:32;0.50;;;0.40;;
16262;SDS011;8239;48.594;8.598;2022-09-27T13:31:04;0.63;;;0.28;;
16262;SDS011;8239;48.594;8.598;2022-09-27T13:33:44;0.50;;;0.50;;
16262;SDS011;8239;48.594;8.598;2022-09-27T13:39:05;0.40;;;0.30;;
16262;SDS011;8239;48.594;8.598;2022-09-27T13:42:00;1.07;;;0.20;;
16262;SDS011;8239;48.594;8.598;2022-09-27T13:44:36;0.47;;;0.20;;
16262;SDS011;8239;48.594;8.598;2022-09-27T13:47:19;0.40;;;0.40;;
16262;SDS011;8239;48.594;8.598;2022-09-27T13:49:57;0.60;;;0.40;;
16262;SDS011;8239;48.594;8.598;2022-09-27T13:52:30;0.63;;;0.50;;
16262;SDS011;8239;48.594;8.598;2022-09-27T13:55:01;0.47;;;0.40;;
16262;SDS011;8239;48.594;8.598;2022-09-27T13:57:41;0.50;;;0.40;;
16262;SDS011;8239;48.594;8.598;2022-09-27T14:00:20;0.50;;;0.50;;
16262;SDS011;8239;48.594;8.598;2022-09-27T14:02:54;0.40;;;0.30;;
16262;SDS011;8239;48.594;8.598;2022-09-27T14:05:27;0.73;;;0.40;;
16262;SDS011;8239;48.594;8.598;2022-09-27T14:07:58;0.30;;;0.30;;
16262;SDS011;8239;48.594;8.598;2022-09-27T14:10:28;0.40;;;0.40;;
16262;SDS011;8239;48.594;8.598;2022-09-27T14:12:58;0.20;;;0.20;;
16262;SDS011;8239;48.594;8.598;2022-09-27T14:15:28;0.97;;;0.37;;
16262;SDS011;8239;48.594;8.598;2022-09-27T14:17:59;0.50;;;0.30;;
16262;SDS011;8239;48.594;8.598;2022-09-27T14:20:30;0.20;;;0.20;;
16262;SDS011;8239;48.594;8.598;2022-09-27T14:23:00;0.90;;;0.30;;
16262;SDS011;8239;48.594;8.598;2022-09-27T14:25:28;0.65;;;0.30;;
16262;SDS011;8239;48.594;8.598;2022-09-27T14:27:55;0.22;;;0.22;;
16262;SDS011;8239;48.594;8.598;2022-09-27T14:30:25;0.80;;;0.50;;
16262;SDS011;8239;48.594;8.598;2022-09-27T14:32:54;0.30;;;0.30;;
16262;SDS011;8239;48.594;8.598;2022-09-27T14:35:26;0.30;;;0.20;;
16262;SDS011;8239;48.594;8.598;2022-09-27T14:38:13;0.40;;;0.30;;
16262;SDS011;8239;48.594;8.598;2022-09-27T14:40:43;0.30;;;0.30;;
16262;SDS011;8239;48.594;8.598;2022-09-27T14:43:20;0.30;;;0.30;;
16262;SDS011;8239;48.594;8.598;2022-09-27T14:45:48;0.57;;;0.30;;
16262;SDS011;8239;48.594;8.598;2022-09-27T14:48:20;1.00;;;0.40;;
16262;SDS011;8239;48.594;8.598;2022-09-27T14:50:53;1.00;;;0.22;;
16262;SDS011;8239;48.594;8.598;2022-09-27T14:53:25;0.30;;;0.30;;
16262;SDS011;8239;48.594;8.598;2022-09-27T14:55:54;0.40;;;0.32;;
16262;SDS011;8239;48.594;8.598;2022-09-27T14:58:22;0.22;;;0.22;;
16262;SDS011;8239;48.594;8.598;2022-09-27T15:00:49;0.30;;;0.30;;
16262;SDS011;8239;48.594;8.598;2022-09-27T15:03:19;0.63;;;0.40;;
16262;SDS011;8239;48.594;8.598;2022-09-27T15:05:50;0.50;;;0.50;;
16262;SDS011;8239;48.594;8.598;2022-09-27T15:08:22;0.40;;;0.30;;
16262;SDS011;8239;48.594;8.598;2022-09-27T15:10:50;0.25;;;0.25;;
16262;SDS011;8239;48.594;8.598;2022-09-27T15:13:18;0.43;;;0.43;;
16262;SDS011;8239;48.594;8.598;2022-09-27T15:15:46;0.60;;;0.40;;
16262;SDS011;8239;48.594;8.598;2022-09-27T15:18:31;0.67;;;0.40;;
16262;SDS011;8239;48.594;8.598;2022-09-27T15:21:06;1.80;;;0.40;;
16262;SDS011;8239;48.594;8.598;2022-09-27T15:23:35;1.17;;;0.40;;
16262;SDS011;8239;48.594;8.598;2022-09-27T15:26:06;1.40;;;0.60;;
16262;SDS011;8239;48.594;8.598;2022-09-27T15:28:36;0.43;;;0.30;;
16262;SDS011;8239;48.594;8.598;2022-09-27T15:31:09;0.40;;;0.40;;
16262;SDS011;8239;48.594;8.598;2022-09-27T15:33:37;0.80;;;0.60;;
16262;SDS011;8239;48.594;8.598;2022-09-27T15:36:08;1.70;;;0.70;;
16262;SDS011;8239;48.594;8.598;2022-09-27T15:38:37;0.87;;;0.60;;
16262;SDS011;8239;48.594;8.598;2022-09-27T15:41:11;1.33;;;0.43;;
16262;SDS011;8239;48.594;8.598;2022-09-27T15:43:40;0.50;;;0.50;;
16262;SDS011;8239;48.594;8.598;2022-09-27T15:46:23;1.77;;;0.60;;
16262;SDS011;8239;48.594;8.598;2022-09-27T15:49:20;0.70;;;0.43;;
16262;SDS011;8239;48.594;8.598;2022-09-27T15:52:00;0.47;;;0.47;;